createdAt,value
2023-07-01T00:00:32.404Z,9.90
2023-07-01T00:03:00.930Z,6.90
2023-07-01T00:05:29.770Z,9.80
2023-07-01T00:07:57.735Z,6.60
2023-07-01T00:10:27.072Z,10.20
2023-07-01T00:12:54.797Z,10.00
2023-07-01T00:15:22.731Z,7.60
2023-07-01T00:17:50.674Z,10.00
2023-07-01T00:20:18.450Z,7.20
2023-07-01T00:22:46.426Z,6.60
2023-07-01T00:25:14.423Z,7.10
2023-07-01T00:27:42.363Z,19.00
2023-07-01T00:30:10.685Z,8.50
2023-07-01T00:32:38.702Z,7.00
2023-07-01T00:35:07.103Z,7.00
2023-07-01T00:37:34.988Z,8.00
2023-07-01T00:40:02.869Z,11.40
2023-07-01T00:42:31.391Z,12.30
2023-07-01T00:44:59.288Z,6.30
2023-07-01T00:47:27.967Z,12.80
2023-07-01T00:49:55.873Z,6.10
2023-07-01T00:52:23.753Z,9.80
2023-07-01T00:54:52.410Z,7.40
2023-07-01T00:57:20.295Z,8.40
2023-07-01T00:59:48.191Z,7.60
2023-07-01T01:02:23.139Z,15.00
2023-07-01T01:05:02.876Z,9.20
2023-07-01T01:07:32.959Z,6.30
2023-07-01T01:10:08.773Z,9.70
2023-07-01T01:12:37.261Z,12.40
2023-07-01T01:15:06.778Z,7.20
2023-07-01T01:17:36.293Z,19.40
2023-07-01T01:20:14.048Z,12.20
2023-07-01T01:22:54.846Z,7.70
2023-07-01T01:25:29.141Z,10.40
2023-07-01T01:27:57.215Z,11.60
2023-07-01T01:30:25.116Z,8.30
2023-07-01T01:32:53.025Z,9.50
2023-07-01T01:35:21.129Z,12.60
2023-07-01T01:38:00.374Z,11.00
2023-07-01T01:40:36.128Z,7.30
2023-07-01T01:43:52.316Z,14.00
2023-07-01T01:46:20.824Z,19.30
2023-07-01T01:48:48.716Z,9.90
2023-07-01T01:51:16.797Z,12.70
2023-07-01T01:53:44.926Z,13.00
2023-07-01T01:56:12.987Z,13.60
2023-07-01T01:58:41.278Z,6.50
2023-07-01T02:01:09.329Z,12.60
2023-07-01T02:03:37.327Z,8.40
2023-07-01T02:06:05.498Z,9.70
2023-07-01T02:08:33.445Z,8.80
2023-07-01T02:11:01.418Z,11.10
2023-07-01T02:13:29.184Z,17.70
2023-07-01T02:15:57.029Z,7.20
2023-07-01T02:18:24.904Z,10.30
2023-07-01T02:20:52.881Z,8.80
2023-07-01T02:23:20.865Z,9.40
2023-07-01T02:25:48.612Z,10.60
2023-07-01T02:28:16.378Z,8.60
2023-07-01T02:30:45.522Z,6.90
2023-07-01T02:33:13.890Z,10.80
2023-07-01T02:35:41.721Z,10.70
2023-07-01T02:38:09.617Z,15.40
2023-07-01T02:40:37.785Z,6.70
2023-07-01T02:43:06.036Z,7.90
2023-07-01T02:45:34.732Z,6.70
2023-07-01T02:48:02.798Z,8.00
2023-07-01T02:50:31.257Z,6.30
2023-07-01T02:52:59.237Z,15.10
2023-07-01T02:55:30.574Z,20.90
2023-07-01T02:57:58.940Z,12.10
2023-07-01T03:00:26.917Z,12.80
2023-07-01T03:02:54.885Z,9.00
2023-07-01T03:05:24.683Z,15.10
2023-07-01T03:07:53.321Z,7.40
2023-07-01T03:10:21.568Z,14.20
2023-07-01T03:12:49.630Z,7.40
2023-07-01T03:15:17.472Z,15.70
2023-07-01T03:17:45.282Z,7.60
2023-07-01T03:20:24.332Z,8.30
2023-07-01T03:22:57.925Z,7.40
2023-07-01T03:25:26.991Z,7.20
2023-07-01T03:27:54.775Z,11.00
2023-07-01T03:30:32.042Z,11.30
2023-07-01T03:33:00.153Z,7.50
2023-07-01T03:35:28.348Z,9.30
2023-07-01T03:37:56.251Z,7.60
2023-07-01T03:40:24.229Z,11.90
2023-07-01T03:42:52.016Z,9.00
2023-07-01T03:45:20.223Z,7.00
2023-07-01T03:47:48.348Z,9.50
2023-07-01T03:50:16.548Z,11.50
2023-07-01T03:52:44.385Z,8.60
2023-07-01T03:55:12.805Z,22.00
2023-07-01T03:57:40.789Z,274.30
2023-07-01T04:00:18.867Z,317.80
2023-07-01T04:02:51.526Z,54.60
2023-07-01T04:07:49.585Z,15.00
2023-07-01T04:10:17.920Z,13.00
2023-07-01T04:12:46.066Z,9.90
2023-07-01T04:15:14.102Z,9.10
2023-07-01T04:17:44.083Z,8.00
2023-07-01T04:20:12.544Z,6.70
2023-07-01T04:22:40.766Z,6.60
2023-07-01T04:25:09.380Z,6.50
2023-07-01T04:27:37.419Z,15.00
2023-07-01T04:30:09.659Z,7.30
2023-07-01T04:32:37.966Z,8.50
2023-07-01T04:35:06.500Z,9.10
2023-07-01T04:37:34.922Z,7.20
2023-07-01T04:40:03.909Z,10.40
2023-07-01T04:42:34.070Z,7.00
2023-07-01T04:45:02.829Z,9.90
2023-07-01T04:47:31.143Z,8.80
2023-07-01T04:49:59.202Z,14.80
2023-07-01T04:52:27.139Z,8.10
2023-07-01T04:54:54.886Z,7.50
2023-07-01T04:57:22.948Z,6.70
2023-07-01T04:59:50.787Z,8.40
2023-07-01T05:02:19.408Z,8.20
2023-07-01T05:04:47.515Z,7.40
2023-07-01T05:07:15.563Z,12.60
2023-07-01T05:09:43.324Z,7.40
2023-07-01T05:12:11.431Z,183.10
2023-07-01T05:14:39.413Z,632.90
2023-07-01T05:17:07.513Z,382.90
2023-07-01T05:19:36.175Z,48.40
2023-07-01T05:22:04.524Z,26.90
2023-07-01T05:24:32.819Z,11.90
2023-07-01T05:27:01.039Z,10.50
2023-07-01T05:29:29.858Z,8.90
2023-07-01T05:31:58.128Z,14.70
2023-07-01T05:34:26.191Z,6.70
2023-07-01T05:36:54.197Z,6.40
2023-07-01T05:39:21.920Z,7.50
2023-07-01T05:41:49.968Z,6.70
2023-07-01T05:44:17.749Z,9.80
2023-07-01T05:46:45.729Z,9.90
2023-07-01T05:49:13.612Z,10.00
2023-07-01T05:51:41.721Z,6.40
2023-07-01T05:54:09.766Z,6.10
2023-07-01T05:56:37.573Z,5.40
2023-07-01T05:59:05.347Z,7.80
2023-07-01T06:01:33.286Z,6.60
2023-07-01T06:04:01.391Z,5.20
2023-07-01T06:06:29.577Z,5.10
2023-07-01T06:08:57.802Z,5.60
2023-07-01T06:11:25.649Z,4.90
2023-07-01T06:13:53.593Z,5.30
2023-07-01T06:16:21.701Z,4.90
2023-07-01T06:18:49.658Z,9.80
2023-07-01T06:21:17.372Z,5.90
2023-07-01T06:23:45.104Z,7.70
2023-07-01T06:26:15.632Z,15.60
2023-07-01T06:31:13.066Z,7.50
2023-07-01T06:33:41.004Z,5.20
2023-07-01T06:36:08.876Z,11.30
2023-07-01T06:38:36.840Z,5.20
2023-07-01T06:41:04.552Z,4.50
2023-07-01T06:43:32.587Z,5.20
2023-07-01T06:46:01.111Z,9.00
2023-07-01T06:48:29.066Z,5.30
2023-07-01T06:50:57.104Z,7.70
2023-07-01T06:53:24.846Z,5.60
2023-07-01T06:55:52.779Z,5.50
2023-07-01T06:58:20.699Z,5.90
2023-07-01T07:00:49.136Z,6.50
2023-07-01T07:03:17.525Z,5.80
2023-07-01T07:05:45.513Z,4.30
2023-07-01T07:08:13.376Z,6.60
2023-07-01T07:10:41.407Z,9.80
2023-07-01T07:13:09.173Z,4.70
2023-07-01T07:15:36.986Z,4.70
2023-07-01T07:18:07.885Z,5.00
2023-07-01T07:20:36.967Z,4.70
2023-07-01T07:23:07.415Z,5.20
2023-07-01T07:25:35.479Z,4.70
2023-07-01T07:28:04.678Z,213.00
2023-07-01T07:30:32.521Z,43.60
2023-07-01T07:33:00.500Z,14.50
2023-07-01T07:35:28.297Z,10.70
2023-07-01T07:37:56.048Z,8.00
2023-07-01T07:40:24.020Z,6.70
2023-07-01T07:42:54.318Z,12.90
2023-07-01T07:45:22.802Z,5.10
2023-07-01T07:47:51.101Z,6.10
2023-07-01T07:50:23.569Z,6.20
2023-07-01T07:52:53.760Z,7.30
2023-07-01T07:55:21.824Z,9.50
2023-07-01T07:57:50.227Z,8.20
2023-07-01T08:00:18.602Z,4.50
2023-07-01T08:02:50.073Z,5.50
2023-07-01T08:05:18.447Z,6.00
2023-07-01T08:07:47.177Z,4.50
2023-07-01T08:10:16.738Z,4.30
2023-07-01T08:12:44.670Z,5.30
2023-07-01T08:15:12.415Z,8.60
2023-07-01T08:17:40.538Z,5.50
2023-07-01T08:20:09.312Z,5.00
2023-07-01T08:22:38.294Z,4.60
2023-07-01T08:25:06.418Z,6.90
2023-07-01T08:27:34.177Z,4.40
2023-07-01T08:30:01.962Z,5.10
2023-07-01T08:32:35.098Z,4.20
2023-07-01T08:35:03.026Z,5.20
2023-07-01T08:37:31.538Z,4.40
2023-07-01T08:39:59.626Z,4.10
2023-07-01T08:42:31.809Z,4.80
2023-07-01T08:44:59.736Z,3.50
2023-07-01T08:47:27.520Z,8.70
2023-07-01T08:49:55.803Z,4.60
2023-07-01T08:52:23.613Z,4.40
2023-07-01T08:54:51.575Z,3.40
2023-07-01T08:57:20.697Z,3.00
2023-07-01T08:59:49.220Z,2.90
2023-07-01T09:02:17.046Z,3.30
2023-07-01T09:04:45.109Z,3.40
2023-07-01T09:07:13.169Z,5.00
2023-07-01T09:09:41.026Z,7.10
2023-07-01T09:12:09.433Z,5.60
2023-07-01T09:15:03.139Z,2.80
2023-07-01T09:17:35.656Z,3.60
2023-07-01T09:20:06.461Z,4.70
2023-07-01T09:22:36.004Z,5.90
2023-07-01T09:25:04.053Z,4.20
2023-07-01T09:27:43.468Z,6.20
2023-07-01T09:30:24.668Z,4.10
2023-07-01T09:32:52.796Z,6.20
2023-07-01T09:35:20.909Z,4.00
2023-07-01T09:38:02.272Z,4.50
2023-07-01T09:40:30.296Z,4.50
2023-07-01T09:42:58.464Z,4.00
2023-07-01T09:45:27.822Z,3.60
2023-07-01T09:47:55.899Z,4.70
2023-07-01T09:50:25.002Z,4.10
2023-07-01T09:52:54.992Z,4.90
2023-07-01T09:55:23.645Z,6.20
2023-07-01T09:57:51.729Z,10.10
2023-07-01T10:00:20.535Z,2.90
2023-07-01T10:02:49.260Z,3.60
2023-07-01T10:05:17.342Z,4.10
2023-07-01T10:07:46.359Z,3.20
2023-07-01T10:10:14.846Z,2.70
2023-07-01T10:12:43.486Z,3.20
2023-07-01T10:15:14.317Z,4.30
2023-07-01T10:17:49.466Z,2.50
2023-07-01T10:20:33.718Z,4.50
2023-07-01T10:23:02.630Z,3.20
2023-07-01T10:25:34.462Z,4.90
2023-07-01T10:30:43.376Z,7.30
2023-07-01T10:33:34.527Z,4.50
2023-07-01T10:36:06.325Z,3.00
2023-07-01T10:41:02.861Z,3.80
2023-07-01T10:43:34.964Z,3.10
2023-07-01T10:46:09.402Z,3.30
2023-07-01T10:49:06.606Z,5.80
2023-07-01T10:51:47.195Z,4.50
2023-07-01T10:54:15.297Z,3.80
2023-07-01T10:57:13.740Z,3.10
2023-07-01T10:59:41.817Z,3.90
2023-07-01T11:02:43.099Z,3.40
2023-07-01T11:05:12.389Z,4.80
2023-07-01T11:07:42.981Z,10.30
2023-07-01T11:10:11.111Z,4.10
2023-07-01T11:12:39.661Z,4.20
2023-07-01T11:15:08.682Z,4.20
2023-07-01T11:17:37.099Z,3.80
2023-07-01T11:20:05.922Z,8.60
2023-07-01T11:22:34.250Z,6.40
2023-07-01T11:25:05.015Z,4.20
2023-07-01T11:27:33.224Z,5.80
2023-07-01T11:30:01.212Z,4.30
2023-07-01T11:32:29.306Z,4.70
2023-07-01T11:34:58.338Z,3.40
2023-07-01T11:37:27.275Z,3.80
2023-07-01T11:39:55.338Z,4.00
2023-07-01T11:42:26.526Z,3.50
2023-07-01T11:44:54.316Z,3.70
2023-07-01T11:47:22.104Z,4.00
2023-07-01T11:49:50.054Z,3.70
2023-07-01T11:52:24.655Z,2.90
2023-07-01T11:54:56.045Z,2.80
2023-07-01T11:57:24.856Z,3.60
2023-07-01T11:59:59.623Z,7.40
2023-07-01T12:02:32.969Z,3.70
2023-07-01T12:05:01.789Z,3.80
2023-07-01T12:07:29.932Z,3.70
2023-07-01T12:10:10.466Z,3.50
2023-07-01T12:12:38.456Z,9.10
2023-07-01T12:15:08.705Z,9.80
2023-07-01T12:17:37.916Z,5.00
2023-07-01T12:20:09.976Z,3.30
2023-07-01T12:22:38.656Z,5.30
2023-07-01T12:25:06.866Z,5.40
2023-07-01T12:27:35.164Z,3.60
2023-07-01T12:30:06.030Z,4.00
2023-07-01T12:32:33.938Z,3.30
2023-07-01T12:35:02.139Z,6.10
2023-07-01T12:37:30.156Z,3.30
2023-07-01T12:39:58.138Z,3.70
2023-07-01T12:42:25.946Z,3.20
2023-07-01T12:44:54.369Z,3.40
2023-07-01T12:47:22.833Z,4.50
2023-07-01T12:49:50.773Z,6.20
2023-07-01T12:52:18.543Z,3.90
2023-07-01T12:54:46.437Z,3.20
2023-07-01T12:57:14.423Z,3.60
2023-07-01T12:59:46.647Z,5.20
2023-07-01T13:02:14.650Z,4.20
2023-07-01T13:04:42.536Z,3.40
2023-07-01T13:07:17.942Z,3.80
2023-07-01T13:09:55.892Z,5.40
2023-07-01T13:12:27.135Z,3.20
2023-07-01T13:14:55.817Z,3.30
2023-07-01T13:17:39.817Z,4.70
2023-07-01T13:20:11.911Z,5.50
2023-07-01T13:22:40.016Z,4.70
2023-07-01T13:25:08.131Z,3.70
2023-07-01T13:27:35.926Z,8.20
2023-07-01T13:30:07.558Z,3.50
2023-07-01T13:32:35.544Z,7.00
2023-07-01T13:35:03.756Z,4.20
2023-07-01T13:37:33.406Z,10.20
2023-07-01T13:40:01.151Z,3.70
2023-07-01T13:42:28.981Z,3.00
2023-07-01T13:44:57.412Z,3.10
2023-07-01T13:47:46.919Z,3.80
2023-07-01T13:50:23.319Z,3.70
2023-07-01T13:53:01.074Z,5.10
2023-07-01T13:55:30.084Z,4.00
2023-07-01T13:57:58.055Z,3.30
2023-07-01T14:00:41.407Z,3.40
2023-07-01T14:03:42.010Z,6.20
2023-07-01T14:06:09.848Z,3.80
2023-07-01T14:08:37.750Z,3.50
2023-07-01T14:11:05.563Z,2.90
2023-07-01T14:13:33.408Z,14.10
2023-07-01T14:16:01.174Z,6.70
2023-07-01T14:18:30.088Z,6.30
2023-07-01T14:21:02.860Z,5.80
2023-07-01T14:23:39.144Z,3.50
2023-07-01T14:26:14.920Z,10.10
2023-07-01T14:28:43.070Z,11.50
2023-07-01T14:31:14.223Z,6.90
2023-07-01T14:33:56.222Z,36.80
2023-07-01T14:36:31.786Z,6.20
2023-07-01T14:39:01.051Z,3.40
2023-07-01T14:41:33.975Z,3.80
2023-07-01T14:44:03.701Z,5.10
2023-07-01T14:46:35.922Z,3.10
2023-07-01T14:49:04.722Z,3.20
2023-07-01T14:51:32.959Z,3.30
2023-07-01T14:54:00.811Z,3.10
2023-07-01T14:56:29.076Z,3.30
2023-07-01T14:58:56.953Z,3.30
2023-07-01T15:01:25.313Z,3.20
2023-07-01T15:03:54.115Z,3.80
2023-07-01T15:06:22.597Z,3.40
2023-07-01T15:08:50.378Z,3.90
2023-07-01T15:11:20.407Z,3.40
2023-07-01T15:13:48.407Z,6.80
2023-07-01T15:16:18.255Z,4.70
2023-07-01T15:18:47.362Z,3.70
2023-07-01T15:21:15.229Z,7.70
2023-07-01T15:23:43.176Z,3.00
2023-07-01T15:26:11.092Z,3.30
2023-07-01T15:28:38.914Z,4.90
2023-07-01T15:31:07.558Z,4.50
2023-07-01T15:33:35.573Z,2.60
2023-07-01T15:36:04.037Z,5.40
2023-07-01T15:38:32.089Z,3.30
2023-07-01T15:40:59.902Z,8.90
2023-07-01T15:43:27.974Z,4.80
2023-07-01T15:45:56.243Z,7.40
2023-07-01T15:48:25.648Z,6.80
2023-07-01T15:50:53.712Z,3.00
2023-07-01T15:53:21.749Z,8.40
2023-07-01T15:55:53.400Z,4.30
2023-07-01T15:58:22.223Z,4.30
2023-07-01T16:00:50.025Z,4.70
2023-07-01T16:03:17.937Z,3.50
2023-07-01T16:05:46.711Z,5.30
2023-07-01T16:08:15.327Z,6.20
2023-07-01T16:10:43.785Z,5.20
2023-07-01T16:13:26.986Z,3.60
2023-07-01T16:16:01.268Z,6.70
2023-07-01T16:18:50.702Z,4.20
2023-07-01T16:21:22.978Z,8.20
2023-07-01T16:23:55.992Z,4.00
2023-07-01T16:26:31.377Z,12.40
2023-07-01T16:28:59.257Z,5.70
2023-07-01T16:31:28.556Z,11.80
2023-07-01T16:33:57.385Z,3.40
2023-07-01T16:36:34.217Z,3.80
2023-07-01T16:39:09.017Z,3.80
2023-07-01T16:41:37.071Z,5.60
2023-07-01T16:44:05.408Z,5.00
2023-07-01T16:46:35.664Z,6.10
2023-07-01T16:49:16.371Z,4.90
2023-07-01T16:51:45.545Z,11.70
2023-07-01T16:54:23.561Z,15.80
2023-07-01T16:56:57.627Z,18.20
2023-07-01T16:59:43.460Z,12.40
2023-07-01T17:02:32.164Z,17.10
2023-07-01T17:05:12.497Z,39.60
2023-07-01T17:07:41.377Z,24.60
2023-07-01T17:10:37.571Z,14.00
2023-07-01T17:13:07.000Z,5.90
2023-07-01T17:15:40.440Z,6.10
2023-07-01T17:18:13.028Z,6.50
2023-07-01T17:20:41.464Z,5.90
2023-07-01T17:23:09.527Z,4.40
2023-07-01T17:25:38.718Z,4.30
2023-07-01T17:28:06.546Z,6.80
2023-07-01T17:30:34.788Z,5.10
2023-07-01T17:33:02.593Z,5.50
2023-07-01T17:35:33.443Z,8.00
2023-07-01T17:38:02.283Z,10.90
2023-07-01T17:40:30.071Z,10.40
2023-07-01T17:42:57.998Z,37.70
2023-07-01T17:45:25.755Z,29.40
2023-07-01T17:47:54.214Z,18.70
2023-07-01T17:50:22.642Z,38.90
2023-07-01T17:52:52.059Z,40.00
2023-07-01T17:55:20.151Z,28.50
2023-07-01T18:00:19.368Z,14.90
2023-07-01T18:02:47.479Z,12.70
2023-07-01T18:05:16.211Z,11.80
2023-07-01T18:07:44.323Z,14.50
2023-07-01T18:10:12.503Z,9.40
2023-07-01T18:12:42.715Z,7.50
2023-07-01T18:15:15.716Z,8.00
2023-07-01T18:17:46.174Z,5.40
2023-07-01T18:20:15.016Z,9.60
2023-07-01T18:22:43.476Z,6.10
2023-07-01T18:25:13.138Z,6.60
2023-07-01T18:27:41.450Z,7.40
2023-07-01T18:30:14.681Z,9.50
2023-07-01T18:32:46.809Z,9.50
2023-07-01T18:35:16.526Z,12.00
2023-07-01T18:37:46.711Z,4.70
2023-07-01T18:40:15.993Z,8.30
2023-07-01T18:42:44.967Z,6.30
2023-07-01T18:45:14.223Z,19.70
2023-07-01T18:47:43.343Z,13.90
2023-07-01T18:50:12.399Z,10.10
2023-07-01T18:52:41.691Z,11.30
2023-07-01T18:55:10.496Z,13.80
2023-07-01T18:57:38.875Z,12.60
2023-07-01T19:00:08.663Z,16.10
2023-07-01T19:02:37.574Z,18.50
2023-07-01T19:05:07.484Z,15.30
2023-07-01T19:07:40.924Z,13.90
2023-07-01T19:10:09.673Z,13.70
2023-07-01T19:12:38.021Z,11.60
2023-07-01T19:15:07.374Z,12.80
2023-07-01T19:17:37.094Z,13.10
2023-07-01T19:20:06.059Z,10.20
2023-07-01T19:22:36.976Z,14.60
2023-07-01T19:25:11.619Z,10.80
2023-07-01T19:27:41.084Z,9.80
2023-07-01T19:30:14.491Z,7.70
2023-07-01T19:32:43.743Z,12.30
2023-07-01T19:35:12.661Z,11.50
2023-07-01T19:37:41.118Z,14.40
2023-07-01T19:40:09.940Z,16.50
2023-07-01T19:42:38.244Z,10.80
2023-07-01T19:45:07.358Z,11.60
2023-07-01T19:47:40.119Z,11.50
2023-07-01T19:50:12.435Z,8.90
2023-07-01T19:55:09.897Z,14.80
2023-07-01T19:57:38.232Z,24.30
2023-07-01T20:00:08.634Z,11.60
2023-07-01T20:02:38.112Z,16.20
2023-07-01T20:05:06.624Z,51.70
2023-07-01T20:07:34.858Z,71.30
2023-07-01T20:10:12.376Z,33.80
2023-07-01T20:12:43.514Z,19.50
2023-07-01T20:15:13.670Z,11.90
2023-07-01T20:17:41.552Z,20.00
2023-07-01T20:20:10.018Z,23.80
2023-07-01T20:22:38.124Z,24.60
2023-07-01T20:25:06.346Z,18.70
2023-07-01T20:27:34.424Z,62.40
2023-07-01T20:30:02.335Z,23.10
2023-07-01T20:32:30.150Z,22.70
2023-07-01T20:34:57.972Z,30.20
2023-07-01T20:37:26.173Z,98.80
2023-07-01T20:39:54.108Z,121.40
2023-07-01T20:42:22.649Z,124.40
2023-07-01T20:44:52.504Z,114.00
2023-07-01T20:47:20.267Z,57.00
2023-07-01T20:49:48.608Z,36.10
2023-07-01T20:52:20.550Z,68.10
2023-07-01T20:54:48.515Z,57.20
2023-07-01T20:57:17.757Z,157.40
2023-07-01T20:59:45.666Z,59.10
2023-07-01T21:02:13.826Z,44.60
2023-07-01T21:04:42.031Z,29.20
2023-07-01T21:07:09.951Z,15.00
2023-07-01T21:09:37.940Z,15.10
2023-07-01T21:12:06.477Z,12.10
2023-07-01T21:14:34.365Z,11.80
2023-07-01T21:17:02.268Z,21.10
2023-07-01T21:19:30.363Z,192.10
2023-07-01T21:21:58.262Z,124.50
2023-07-01T21:24:26.261Z,23.20
2023-07-01T21:26:53.999Z,25.90
2023-07-01T21:29:21.682Z,9.80
2023-07-01T21:31:53.352Z,151.40
2023-07-01T21:34:22.036Z,685.40
2023-07-01T21:36:54.787Z,484.50
2023-07-01T21:39:23.844Z,122.90
2023-07-01T21:41:51.748Z,30.30
2023-07-01T21:44:19.667Z,16.30
2023-07-01T21:46:47.468Z,17.40
2023-07-01T21:49:16.036Z,10.00
2023-07-01T21:51:48.219Z,7.60
2023-07-01T21:54:17.466Z,9.80
2023-07-01T21:56:46.370Z,27.20
2023-07-01T21:59:14.621Z,21.10
2023-07-01T22:01:43.596Z,16.70
2023-07-01T22:04:12.137Z,69.50
2023-07-01T22:06:42.744Z,73.20
2023-07-01T22:09:10.798Z,50.80
2023-07-01T22:11:38.836Z,44.10
2023-07-01T22:14:07.000Z,30.60
2023-07-01T22:16:35.548Z,25.90
2023-07-01T22:19:03.638Z,24.40
2023-07-01T22:21:32.104Z,13.60
2023-07-01T22:24:00.841Z,14.80
2023-07-01T22:26:29.508Z,15.30
2023-07-01T22:28:58.200Z,13.60
2023-07-01T22:31:26.362Z,7.70
2023-07-01T22:33:54.437Z,9.10
2023-07-01T22:36:24.549Z,11.40
2023-07-01T22:38:52.608Z,9.80
2023-07-01T22:41:20.379Z,16.00
2023-07-01T22:43:48.306Z,10.20
2023-07-01T22:46:16.305Z,12.20
2023-07-01T22:48:44.248Z,8.40
2023-07-01T22:51:12.133Z,11.60
2023-07-01T22:53:40.251Z,14.00
2023-07-01T22:56:08.296Z,11.70
2023-07-01T22:58:36.190Z,15.00
2023-07-01T23:01:04.052Z,14.00
2023-07-01T23:03:32.084Z,9.50
2023-07-01T23:06:00.337Z,12.20
2023-07-01T23:08:28.273Z,10.00
2023-07-01T23:10:56.003Z,8.20
2023-07-01T23:13:23.741Z,7.40
2023-07-01T23:15:51.645Z,9.70
2023-07-01T23:18:19.467Z,9.10
2023-07-01T23:20:47.858Z,7.60
2023-07-01T23:23:16.793Z,14.00
2023-07-01T23:25:45.895Z,12.20
2023-07-01T23:28:14.437Z,11.60
2023-07-01T23:30:42.864Z,11.70
2023-07-01T23:33:10.927Z,10.80
2023-07-01T23:35:38.791Z,6.30
2023-07-01T23:38:06.548Z,8.60
2023-07-01T23:40:34.667Z,9.90
2023-07-01T23:43:02.548Z,6.70
2023-07-01T23:45:30.382Z,11.30
2023-07-01T23:47:58.250Z,9.40
2023-07-01T23:50:25.945Z,6.80
2023-07-01T23:52:54.109Z,7.80
2023-07-01T23:55:23.272Z,7.70
2023-07-01T23:57:51.232Z,6.50
